Terminal Aerodrome Forecast
Issued by NWS

Home | Current Version | Previous Version | Text Only | Print | Product List | Glossary On
Versions: 1 2 3 4 5 6 7 8 9 10 11 12 13 14 15 16 17
000
FTUS42 KTAE 022332
TAFECP
TAF
KECP 022332Z 0300/0324 30003KT P6SM FEW040
     FM031500 18006KT P6SM SCT040
     FM031900 23011KT P6SM SCT040=

USA.gov is the U.S. government's official web portal to all federal, state and local government web resources and services.